Time;durP1;ratioP1;P1;durP2;ratioP2;P2;SDS_P1;SDS_P2;PMS_P1;PMS_P2;Temp;Humidity;BMP_temperature;BMP_pressure;BME280_temperature;BME280_humidity;BME280_pressure;Samples;Min_cycle;Max_cycle;Signal;HPM_P1;HPM_P2
2022/12/14 00:00:41;;;;;;;0.00;0.00;;;;;;;3.53;75.04;100187.22;7355228;19;20039;-58
2022/12/14 00:03:07;;;;;;;0.10;0.10;;;;;;;3.53;75.05;100191.53;7361322;19;20032;-57
2022/12/14 00:05:33;;;;;;;0.10;0.10;;;;;;;3.47;75.25;100181.22;7360893;19;20010;-58
2022/12/14 00:07:58;;;;;;;0.10;0.10;;;;;;;3.49;74.92;100182.06;7360419;19;20011;-58
2022/12/14 00:10:24;;;;;;;0.00;0.00;;;;;;;3.60;75.02;100190.66;7358355;19;20089;-58
2022/12/14 00:12:49;;;;;;;0.00;0.00;;;;;;;3.28;74.93;100124.47;7355263;19;20010;-58
2022/12/14 00:15:15;;;;;;;0.03;0.03;;;;;;;3.62;74.85;100184.63;7353699;19;20018;-56
2022/12/14 00:17:40;;;;;;;0.00;0.00;;;;;;;3.55;74.61;100164.84;7354753;19;20849;-57
2022/12/14 00:20:07;;;;;;;0.00;0.00;;;;;;;3.72;74.66;100188.03;7351414;19;20018;-57
2022/12/14 00:22:33;;;;;;;0.00;0.00;;;;;;;3.75;74.46;100188.03;7354545;19;20012;-58
2022/12/14 00:24:58;;;;;;;0.00;0.00;;;;;;;3.73;74.44;100184.56;7353447;19;20014;-58
2022/12/14 00:27:23;;;;;;;0.10;0.10;;;;;;;3.77;74.68;100194.03;7355398;19;20639;-57
2022/12/14 00:29:49;;;;;;;0.10;0.10;;;;;;;3.75;74.51;100187.16;7353526;19;20521;-57
2022/12/14 00:32:14;;;;;;;0.05;0.05;;;;;;;3.77;74.46;100185.44;7356161;19;20093;-57
2022/12/14 00:34:40;;;;;;;0.00;0.00;;;;;;;3.75;73.95;100188.03;7354300;19;20006;-58
2022/12/14 00:37:05;;;;;;;0.10;0.10;;;;;;;3.71;74.20;100186.31;7358308;19;20014;-57
2022/12/14 00:39:30;;;;;;;0.10;0.10;;;;;;;3.72;73.76;100190.63;7362187;19;20014;-56
2022/12/14 00:41:56;;;;;;;0.08;0.08;;;;;;;3.64;73.73;100180.28;7364890;19;20015;-58
2022/12/14 00:44:21;;;;;;;0.10;0.10;;;;;;;3.67;73.91;100194.06;7355417;19;20011;-58
2022/12/14 00:46:47;;;;;;;0.10;0.10;;;;;;;3.53;74.02;100170.88;7359254;19;20027;-58
2022/12/14 00:49:13;;;;;;;0.10;0.10;;;;;;;3.64;74.03;100189.75;7361733;19;20056;-58
2022/12/14 00:51:39;;;;;;;0.00;0.00;;;;;;;3.52;73.84;100174.31;7364338;19;20033;-58
2022/12/14 00:54:04;;;;;;;0.10;0.10;;;;;;;3.57;73.87;100182.91;7365929;19;20612;-55
2022/12/14 00:56:30;;;;;;;0.10;0.10;;;;;;;3.58;73.46;100184.63;7363481;19;20022;-57
2022/12/14 00:58:55;;;;;;;0.10;0.10;;;;;;;3.39;73.34;100164.00;7363467;19;20014;-56
2022/12/14 01:01:21;;;;;;;0.00;0.00;;;;;;;3.39;73.60;100169.16;7362744;19;20022;-57
2022/12/14 01:03:47;;;;;;;0.10;0.10;;;;;;;3.37;73.39;100170.91;7363168;19;20014;-57
2022/12/14 01:06:19;;;;;;;0.10;0.10;;;;;;;3.49;73.56;100189.81;7364017;19;20015;-58
2022/12/14 01:08:44;;;;;;;0.10;0.10;;;;;;;3.30;73.31;100169.22;7365717;19;20015;-56
2022/12/14 01:11:11;;;;;;;0.10;0.10;;;;;;;3.33;73.35;100188.97;7363329;19;21633;-57
2022/12/14 01:13:37;;;;;;;0.00;0.00;;;;;;;3.43;72.96;100205.31;7363182;19;20474;-62
2022/12/14 01:16:09;;;;;;;0.00;0.00;;;;;;;3.39;73.17;100202.72;7363136;19;20035;-56
2022/12/14 01:18:36;;;;;;;0.00;0.00;;;;;;;3.41;73.31;100207.03;7364177;19;20037;-58
2022/12/14 01:21:16;;;;;;;0.10;0.10;;;;;;;3.41;73.08;100207.03;7362349;19;20006;-58
2022/12/14 01:23:42;;;;;;;0.00;0.00;;;;;;;3.37;73.49;100207.03;7363593;19;20468;-58
2022/12/14 01:26:08;;;;;;;0.05;0.05;;;;;;;3.36;73.56;100207.03;7363207;19;20029;-57
2022/12/14 01:28:34;;;;;;;0.00;0.00;;;;;;;3.27;73.45;100195.00;7364671;19;20014;-57
2022/12/14 01:31:13;;;;;;;0.10;0.10;;;;;;;3.33;73.28;100209.63;7360915;19;20361;-58
2022/12/14 01:33:39;;;;;;;0.10;0.10;;;;;;;3.24;73.37;100195.00;7363779;19;20014;-56
2022/12/14 01:36:16;;;;;;;0.10;0.10;;;;;;;3.12;73.42;100177.81;7361826;19;20105;-56
2022/12/14 01:38:43;;;;;;;0.10;0.10;;;;;;;3.22;73.43;100203.63;7362571;19;20017;-57
2022/12/14 01:41:26;;;;;;;0.10;0.10;;;;;;;3.25;73.48;100212.22;7363723;19;20029;-56
2022/12/14 01:43:57;;;;;;;0.10;0.10;;;;;;;3.22;73.62;100217.38;7363916;19;20004;-57
2022/12/14 01:46:22;;;;;;;0.10;0.10;;;;;;;3.18;73.51;100215.66;7363326;19;20014;-55
2022/12/14 01:48:50;;;;;;;0.10;0.10;;;;;;;3.17;73.18;100223.41;7361864;19;20006;-57
2022/12/14 01:51:16;;;;;;;0.10;0.10;;;;;;;2.95;73.65;100191.59;7363837;19;20038;-58
2022/12/14 01:53:42;;;;;;;0.10;0.10;;;;;;;3.06;73.27;100218.25;7362314;19;20085;-56
2022/12/14 01:56:07;;;;;;;0.10;0.10;;;;;;;2.97;73.58;100205.34;7362284;19;20641;-58
2022/12/14 01:58:32;;;;;;;0.00;0.00;;;;;;;3.05;73.42;100234.59;7362863;19;20019;-57
2022/12/14 02:01:00;;;;;;;0.00;0.00;;;;;;;2.95;73.32;100214.81;7362614;19;20082;-57
2022/12/14 02:03:32;;;;;;;0.08;0.08;;;;;;;2.95;73.65;100219.97;7360077;19;20010;-58
2022/12/14 02:06:12;;;;;;;0.10;0.10;;;;;;;3.01;73.37;100233.72;7361749;19;20448;-57
2022/12/14 02:08:40;;;;;;;0.10;0.10;;;;;;;2.93;73.18;100234.56;7363108;19;20010;-56
2022/12/14 02:11:06;;;;;;;0.10;0.10;;;;;;;2.94;73.32;100241.44;7361512;19;20027;-58
2022/12/14 02:13:36;;;;;;;0.10;0.10;;;;;;;2.95;73.58;100238.03;7361978;19;20014;-57
2022/12/14 02:16:02;;;;;;;0.10;0.10;;;;;;;2.89;73.40;100232.84;7362715;19;20374;-57
2022/12/14 02:18:30;;;;;;;0.00;0.00;;;;;;;2.87;73.25;100227.69;7358689;19;20007;-57
2022/12/14 02:21:31;;;;;;;0.00;0.00;;;;;;;2.92;73.27;100240.59;7364124;19;20028;-56
2022/12/14 02:24:21;;;;;;;0.10;0.10;;;;;;;2.89;73.19;100236.31;7260331;19;2004413;-55
2022/12/14 02:27:07;;;;;;;0.00;0.00;;;;;;;2.88;73.17;100231.13;7361050;19;20711;-58
2022/12/14 02:29:44;;;;;;;0.10;0.10;;;;;;;2.85;72.98;100227.69;7360520;19;20364;-55
2022/12/14 02:32:29;;;;;;;0.00;0.00;;;;;;;2.82;73.38;100231.97;7363295;19;20021;-57
2022/12/14 02:35:07;;;;;;;0.10;0.10;;;;;;;2.82;73.23;100242.28;7349772;19;20191;-57
2022/12/14 02:37:54;;;;;;;0.00;0.00;;;;;;;2.79;73.04;100238.00;7362078;19;20010;-57
2022/12/14 02:40:33;;;;;;;0.10;0.10;;;;;;;2.78;73.18;100235.41;7362282;19;20097;-57
2022/12/14 02:43:28;;;;;;;0.10;0.10;;;;;;;2.67;73.24;100213.91;7359449;19;20021;-56
2022/12/14 02:45:57;;;;;;;0.10;0.10;;;;;;;2.74;73.28;100237.13;7257045;19;2004288;-58
2022/12/14 02:48:25;;;;;;;0.10;0.10;;;;;;;2.70;73.17;100235.41;7362878;19;20159;-57
2022/12/14 02:51:13;;;;;;;0.10;0.10;;;;;;;2.67;72.89;100232.81;7359259;19;20011;-58
2022/12/14 02:53:52;;;;;;;0.10;0.10;;;;;;;2.60;73.28;100213.03;7362333;19;20010;-57
2022/12/14 02:56:26;;;;;;;0.08;0.08;;;;;;;2.62;73.29;100219.06;7359369;19;20014;-56
2022/12/14 02:58:52;;;;;;;0.00;0.00;;;;;;;2.65;73.13;100224.22;7348167;19;20672;-57
2022/12/14 03:01:24;;;;;;;0.10;0.10;;;;;;;2.69;73.31;100225.97;7359131;19;20018;-58
2022/12/14 03:03:50;;;;;;;0.10;0.10;;;;;;;2.66;73.30;100220.78;7357600;19;20462;-57
2022/12/14 03:06:26;;;;;;;0.00;0.00;;;;;;;2.69;72.82;100231.13;7359848;19;20031;-56
2022/12/14 03:09:16;;;;;;;0.00;0.00;;;;;;;2.53;73.21;100208.72;7361268;19;20033;-57
2022/12/14 03:11:54;;;;;;;0.10;0.10;;;;;;;2.68;72.84;100223.34;7358134;19;20021;-58
2022/12/14 03:14:41;;;;;;;0.10;0.10;;;;;;;2.69;72.88;100228.53;7355472;19;20017;-55
2022/12/14 03:17:14;;;;;;;0.10;0.10;;;;;;;2.64;73.06;100222.50;7361152;19;20025;-57
2022/12/14 03:20:02;;;;;;;0.10;0.10;;;;;;;2.43;72.66;100192.38;7354034;19;20015;-57
2022/12/14 03:23:02;;;;;;;0.10;0.10;;;;;;;2.68;72.63;100234.53;7356661;19;20048;-57
2022/12/14 03:25:41;;;;;;;0.00;0.00;;;;;;;2.68;72.75;100233.66;7256321;19;2004084;-57
2022/12/14 03:28:47;;;;;;;0.10;0.10;;;;;;;2.69;72.83;100231.13;7362105;19;20884;-56
2022/12/14 03:31:24;;;;;;;0.10;0.10;;;;;;;2.68;72.49;100229.38;7255187;19;2004312;-57
2022/12/14 03:33:52;;;;;;;0.10;0.10;;;;;;;2.56;72.78;100211.31;7358549;19;20014;-56
2022/12/14 03:36:24;;;;;;;;;;;;;;;2.71;73.00;100234.53;7359938;19;20107;-57
2022/12/14 03:38:55;;;;;;;0.10;0.10;;;;;;;2.51;72.60;100194.97;7355160;19;19919;-58
2022/12/14 03:41:45;;;;;;;0.10;0.10;;;;;;;2.70;72.46;100230.25;7358030;19;20101;-57
2022/12/14 03:44:35;;;;;;;0.10;0.10;;;;;;;2.70;72.65;100231.97;7359714;19;20007;-55
2022/12/14 03:47:06;;;;;;;0.03;0.03;;;;;;;2.66;72.72;100228.50;7357548;19;20015;-56
2022/12/14 03:50:10;;;;;;;0.10;0.10;;;;;;;2.69;72.85;100231.13;7358258;19;20093;-57
2022/12/14 03:52:55;;;;;;;0.00;0.00;;;;;;;2.67;72.75;100226.78;7252717;19;2004255;-57
2022/12/14 03:55:44;;;;;;;0.10;0.10;;;;;;;2.69;72.90;100236.28;7359347;19;20037;-58
2022/12/14 03:58:19;;;;;;;0.10;0.10;;;;;;;2.70;72.89;100237.97;7358312;19;20014;-58
2022/12/14 04:00:50;;;;;;;0.10;0.10;;;;;;;2.69;72.70;100232.84;7357972;19;20085;-58
2022/12/14 04:03:23;;;;;;;0.00;0.00;;;;;;;2.65;73.03;100223.38;7357761;19;20834;-58
2022/12/14 04:05:59;;;;;;;0.10;0.10;;;;;;;2.62;72.76;100219.06;7340214;19;20021;-57
2022/12/14 04:08:39;;;;;;;0.10;0.10;;;;;;;2.71;72.71;100244.84;7357110;19;20463;-55
2022/12/14 04:19:55;;;;;;;0.00;0.00;;;;;;;2.77;72.83;100242.28;7342526;19;20557;-58
2022/12/14 04:22:25;;;;;;;0.10;0.10;;;;;;;2.80;73.09;100247.44;7356402;19;20017;-58
2022/12/14 04:28:04;;;;;;;0.10;0.10;;;;;;;2.99;72.75;100262.94;7257392;19;2004326;-56
2022/12/14 04:30:36;;;;;;;0.10;0.10;;;;;;;3.03;73.18;100262.09;7357332;19;20015;-58
2022/12/14 04:33:45;;;;;;;0.10;0.10;;;;;;;3.08;72.96;100263.81;7358624;19;20026;-57
2022/12/14 04:35:56;;;;;;;0.10;0.10;;;;;;;3.11;72.87;100265.53;7358291;19;20495;-57
2022/12/14 04:38:32;;;;;;;0.10;0.10;;;;;;;3.15;72.66;100261.25;7356572;19;20007;-57
2022/12/14 04:41:04;;;;;;;0.10;0.10;;;;;;;3.20;72.83;100255.22;7355982;19;20042;-54
2022/12/14 04:43:37;;;;;;;0.10;0.10;;;;;;;3.32;73.04;100264.69;7356193;19;20119;-56
2022/12/14 04:46:14;;;;;;;0.10;0.10;;;;;;;3.32;72.50;100244.88;7359805;19;20002;-55
2022/12/14 04:48:45;;;;;;;0.00;0.00;;;;;;;3.42;72.92;100257.78;7355713;19;20010;-58
2022/12/14 04:51:30;;;;;;;0.10;0.10;;;;;;;3.50;72.56;100261.25;7355813;19;20027;-57
2022/12/14 04:54:07;;;;;;;0.10;0.10;;;;;;;3.54;72.68;100261.22;7356413;19;20010;-56
2022/12/14 04:56:45;;;;;;;0.10;0.10;;;;;;;3.60;72.54;100268.13;7359213;19;20408;-57
2022/12/14 04:59:11;;;;;;;0.10;0.10;;;;;;;3.61;72.72;100262.94;7356499;19;20011;-57
2022/12/14 05:01:45;;;;;;;0.03;0.03;;;;;;;3.65;72.76;100263.81;7358879;19;20017;-58
2022/12/14 05:04:36;;;;;;;0.08;0.08;;;;;;;3.71;72.51;100263.78;7358583;19;20003;-58
2022/12/14 05:07:20;;;;;;;0.05;0.05;;;;;;;3.71;72.44;100263.78;7256752;19;2004280;-57
2022/12/14 05:10:04;;;;;;;0.10;0.10;;;;;;;3.75;72.49;100265.50;7357350;19;20583;-56
2022/12/14 05:12:41;;;;;;;0.10;0.10;;;;;;;3.67;72.45;100245.72;7357284;19;20018;-58
2022/12/14 05:15:10;;;;;;;0.10;0.10;;;;;;;3.79;72.11;100267.19;7357476;19;20017;-58
2022/12/14 05:17:37;;;;;;;0.10;0.10;;;;;;;3.71;72.20;100248.28;7358753;19;20487;-58
2022/12/14 05:20:04;;;;;;;;;;;;;;;3.84;72.38;100260.28;7358559;19;20011;-57
2022/12/14 05:22:29;;;;;;;0.10;0.10;;;;;;;3.67;72.04;100241.41;7360775;19;19922;-55
2022/12/14 05:24:54;;;;;;;0.00;0.00;;;;;;;3.78;71.87;100257.72;7364693;19;20037;-54
2022/12/14 05:27:20;;;;;;;0.10;0.10;;;;;;;3.79;72.26;100256.88;7362846;19;20441;-57
2022/12/14 05:29:45;;;;;;;0.10;0.10;;;;;;;3.81;72.34;100269.78;7364264;19;20021;-58
2022/12/14 05:32:11;;;;;;;0.10;0.10;;;;;;;3.64;71.93;100236.25;7364825;19;20021;-57
2022/12/14 05:34:37;;;;;;;0.10;0.10;;;;;;;3.80;72.52;100265.47;7362830;19;20010;-56
2022/12/14 05:37:02;;;;;;;0.00;0.00;;;;;;;3.80;72.17;100268.06;7365706;19;20007;-58
2022/12/14 05:39:28;;;;;;;0.10;0.10;;;;;;;3.77;72.15;100263.78;7360945;19;20603;-56
2022/12/14 05:41:53;;;;;;;0.10;0.10;;;;;;;3.75;72.17;100267.19;7363799;19;20010;-58
2022/12/14 05:44:19;;;;;;;0.00;0.00;;;;;;;3.67;72.00;100246.56;7364286;19;20011;-58
2022/12/14 05:46:45;;;;;;;0.00;0.00;;;;;;;3.64;72.11;100251.72;7360454;19;20046;-57
2022/12/14 05:49:11;;;;;;;0.10;0.10;;;;;;;3.73;71.91;100262.03;7365563;19;20081;-56
2022/12/14 05:51:36;;;;;;;0.00;0.00;;;;;;;3.77;72.05;100268.06;7361663;19;20015;-57
2022/12/14 05:54:01;;;;;;;0.10;0.10;;;;;;;3.67;72.10;100251.75;7365489;19;20038;-57
2022/12/14 05:56:27;;;;;;;0.10;0.10;;;;;;;3.63;71.95;100255.19;7362963;19;20014;-57
2022/12/14 05:58:53;;;;;;;0.10;0.10;;;;;;;3.61;72.13;100249.16;7363555;19;20423;-58
2022/12/14 06:01:18;;;;;;;0.10;0.10;;;;;;;3.64;71.78;100251.72;7363825;19;20018;-56
2022/12/14 06:03:44;;;;;;;0.10;0.10;;;;;;;3.75;72.06;100270.66;7360907;19;21001;-58
2022/12/14 06:06:11;;;;;;;0.10;0.10;;;;;;;3.78;72.00;100278.41;7362975;19;20014;-57
2022/12/14 06:08:39;;;;;;;0.10;0.10;;;;;;;3.75;71.90;100281.00;7364650;19;20023;-56
2022/12/14 06:11:08;;;;;;;0.10;0.10;;;;;;;3.76;71.83;100277.56;7363336;19;20023;-57
2022/12/14 06:13:38;;;;;;;0.08;0.08;;;;;;;3.77;72.17;100278.41;7362214;19;20188;-57
2022/12/14 06:16:21;;;;;;;0.10;0.10;;;;;;;3.70;72.15;100274.97;7361551;19;20018;-56
2022/12/14 06:18:49;;;;;;;0.00;0.00;;;;;;;3.76;71.94;100290.47;7363189;19;20010;-56
2022/12/14 06:21:17;;;;;;;0.10;0.10;;;;;;;3.76;72.13;100282.72;7361737;19;20018;-55
2022/12/14 06:23:43;;;;;;;0.00;0.00;;;;;;;3.77;71.65;100293.91;7362691;19;20364;-57
2022/12/14 06:26:09;;;;;;;0.10;0.10;;;;;;;3.78;72.20;100286.13;7363564;19;20806;-58
2022/12/14 06:28:35;;;;;;;0.08;0.08;;;;;;;3.80;71.60;100289.59;7365406;19;20038;-57
2022/12/14 06:31:02;;;;;;;0.10;0.10;;;;;;;3.81;71.96;100283.56;7361743;19;20007;-57
2022/12/14 06:33:28;;;;;;;0.10;0.10;;;;;;;3.84;71.79;100291.28;7361893;19;20018;-56
2022/12/14 06:35:54;;;;;;;0.00;0.00;;;;;;;3.73;71.60;100272.38;7363266;19;20010;-57
2022/12/14 06:38:20;;;;;;;0.10;0.10;;;;;;;3.87;71.59;100291.28;7363898;19;20584;-57
2022/12/14 06:40:45;;;;;;;0.10;0.10;;;;;;;3.82;71.56;100287.00;7360601;19;20010;-57
2022/12/14 06:43:11;;;;;;;0.10;0.10;;;;;;;3.90;71.51;100296.47;7364283;19;20010;-58
2022/12/14 06:45:37;;;;;;;0.10;0.10;;;;;;;3.76;71.33;100269.81;7361122;19;20010;-58
2022/12/14 06:48:03;;;;;;;0.10;0.10;;;;;;;3.93;71.27;100295.59;7363049;19;20014;-58
2022/12/14 06:50:29;;;;;;;0.10;0.10;;;;;;;3.93;71.05;100289.56;7357705;19;20010;-58
2022/12/14 06:52:54;;;;;;;0.10;0.10;;;;;;;3.94;71.42;100301.59;7364541;19;20013;-57
2022/12/14 06:55:21;;;;;;;0.00;0.00;;;;;;;3.79;71.18;100277.53;7363792;19;20018;-58
2022/12/14 06:57:50;;;;;;;0.00;0.00;;;;;;;3.76;71.38;100274.09;7354655;19;20011;-57
2022/12/14 07:00:17;;;;;;;0.08;0.08;;;;;;;3.86;70.70;100299.06;7359739;19;20011;-57
2022/12/14 07:02:42;;;;;;;0.03;0.03;;;;;;;3.84;70.95;100296.47;7361642;19;20033;-56
2022/12/14 07:05:08;;;;;;;0.10;0.10;;;;;;;3.83;70.97;100305.06;7356544;19;20403;-56
2022/12/14 07:07:34;;;;;;;0.10;0.10;;;;;;;3.82;70.94;100303.34;7365233;19;20014;-58
2022/12/14 07:10:01;;;;;;;0.10;0.10;;;;;;;3.73;71.09;100293.03;7357824;19;20010;-56
2022/12/14 07:12:27;;;;;;;0.10;0.10;;;;;;;3.77;70.89;100310.25;7361816;19;20141;-58
2022/12/14 07:14:55;;;;;;;0.10;0.10;;;;;;;3.77;70.71;100302.50;7360704;19;20010;-58
2022/12/14 07:17:21;;;;;;;0.00;0.00;;;;;;;3.58;70.72;100288.75;7360196;19;20710;-57
2022/12/14 07:19:47;;;;;;;0.10;0.10;;;;;;;3.72;70.46;100313.72;7359071;19;20013;-57
2022/12/14 07:22:13;;;;;;;0.10;0.10;;;;;;;3.62;70.66;100305.09;7359057;19;20073;-57
2022/12/14 07:24:40;;;;;;;0.00;0.00;;;;;;;3.66;70.63;100319.75;7358701;19;20073;-57
2022/12/14 07:27:06;;;;;;;0.10;0.10;;;;;;;3.63;70.74;100322.31;7355328;19;20011;-57
2022/12/14 07:29:32;;;;;;;0.10;0.10;;;;;;;3.50;70.61;100311.16;7345623;19;20114;-57
2022/12/14 07:31:57;;;;;;;0.10;0.10;;;;;;;3.58;70.73;100324.03;7351397;19;20081;-57
2022/12/14 07:34:23;;;;;;;0.10;0.10;;;;;;;3.46;70.80;100298.25;7348782;19;20044;-57
2022/12/14 07:36:50;;;;;;;0.10;0.10;;;;;;;3.54;70.86;100327.47;7356339;19;20731;-56
2022/12/14 07:39:16;;;;;;;0.10;0.10;;;;;;;3.51;70.79;100328.34;7358895;19;20034;-57
2022/12/14 07:41:43;;;;;;;0.10;0.10;;;;;;;3.47;70.86;100336.09;7355383;19;20575;-57
2022/12/14 07:44:09;;;;;;;0.05;0.05;;;;;;;3.43;71.12;100335.22;7356292;19;20021;-57
2022/12/14 07:46:35;;;;;;;0.10;0.10;;;;;;;3.32;71.03;100324.88;7356114;19;20037;-58
2022/12/14 07:49:00;;;;;;;0.00;0.00;;;;;;;3.38;71.19;100335.22;7360965;19;20003;-57
2022/12/14 07:51:32;;;;;;;0.10;0.10;;;;;;;3.35;71.14;100342.13;7359829;19;20835;-56
2022/12/14 07:54:00;;;;;;;0.10;0.10;;;;;;;3.31;71.29;100341.25;7361392;19;20630;-56
2022/12/14 07:56:33;;;;;;;0.03;0.03;;;;;;;3.25;71.22;100346.41;7358810;19;20010;-55
2022/12/14 07:58:59;;;;;;;0.00;0.00;;;;;;;3.22;71.23;100341.22;7355746;19;20010;-58
2022/12/14 08:01:31;;;;;;;0.00;0.00;;;;;;;3.20;71.21;100347.25;7353467;19;20022;-56
2022/12/14 08:04:02;;;;;;;0.00;0.00;;;;;;;3.14;71.24;100348.06;7358596;19;20042;-56
2022/12/14 08:06:29;;;;;;;0.00;0.00;;;;;;;3.09;71.09;100347.22;7357661;19;20015;-58
2022/12/14 08:08:54;;;;;;;0.10;0.10;;;;;;;3.06;71.13;100350.66;7340125;19;20010;-57
2022/12/14 08:11:21;;;;;;;0.10;0.10;;;;;;;3.00;71.26;100349.78;7356361;19;20035;-56
2022/12/14 08:13:51;;;;;;;0.00;0.00;;;;;;;3.05;71.52;100364.41;7356385;19;20003;-56
2022/12/14 08:16:16;;;;;;;0.10;0.10;;;;;;;3.04;71.24;100366.97;7358455;19;20092;-58
2022/12/14 08:18:42;;;;;;;0.10;0.10;;;;;;;2.90;71.36;100342.88;7359889;19;20037;-56
2022/12/14 08:21:10;;;;;;;0.00;0.00;;;;;;;3.00;71.31;100360.09;7357471;19;20732;-57
2022/12/14 08:23:36;;;;;;;0.08;0.08;;;;;;;2.98;71.34;100361.81;7346513;19;20011;-58
2022/12/14 08:26:04;;;;;;;0.05;0.05;;;;;;;3.05;71.27;100376.47;7358517;19;20031;-57
2022/12/14 08:28:30;;;;;;;0.10;0.10;;;;;;;3.06;71.74;100384.19;7360741;19;20988;-57
2022/12/14 08:30:56;;;;;;;0.00;0.00;;;;;;;3.06;71.24;100383.34;7362394;19;20022;-55
2022/12/14 08:33:22;;;;;;;0.10;0.10;;;;;;;3.03;71.31;100381.59;7360900;19;20466;-57
2022/12/14 08:35:47;;;;;;;0.00;0.00;;;;;;;3.06;71.36;100391.06;7357764;19;20010;-58
2022/12/14 08:38:14;;;;;;;0.00;0.00;;;;;;;3.05;71.47;100389.34;7361489;19;20338;-55
2022/12/14 08:40:39;;;;;;;0.10;0.10;;;;;;;2.94;71.32;100370.38;7355983;19;20027;-54
2022/12/14 08:43:06;;;;;;;0.10;0.10;;;;;;;3.07;71.51;100400.53;7361300;19;20010;-57
2022/12/14 08:45:32;;;;;;;0.00;0.00;;;;;;;3.06;71.60;100397.09;7358989;19;20038;-58
2022/12/14 08:47:58;;;;;;;0.10;0.10;;;;;;;3.08;71.35;100409.97;7361637;19;20411;-59
2022/12/14 08:50:25;;;;;;;0.10;0.10;;;;;;;2.90;71.26;100376.41;7359500;19;20006;-57
2022/12/14 08:52:50;;;;;;;0.10;0.10;;;;;;;3.11;71.51;100416.03;7361515;19;20482;-57
2022/12/14 08:55:16;;;;;;;0.00;0.00;;;;;;;3.13;71.27;100410.84;7350520;19;20014;-57
2022/12/14 08:57:41;;;;;;;0.10;0.10;;;;;;;3.13;71.53;100413.44;7364885;19;20023;-56
2022/12/14 09:00:10;;;;;;;0.00;0.00;;;;;;;3.07;71.55;100397.94;7368472;19;20023;-57
2022/12/14 09:02:35;;;;;;;0.00;0.00;;;;;;;3.20;71.72;100424.66;7368284;19;20023;-56
2022/12/14 09:05:01;;;;;;;0.10;0.10;;;;;;;3.18;71.70;100411.72;7367568;19;20017;-58
2022/12/14 09:07:27;;;;;;;0.00;0.00;;;;;;;2.99;71.69;100384.16;7364251;19;20023;-57
2022/12/14 09:09:52;;;;;;;0.10;0.10;;;;;;;3.14;71.34;100407.41;7370115;19;20482;-56
2022/12/14 09:12:19;;;;;;;0.10;0.10;;;;;;;3.30;71.39;100442.75;7367371;19;20017;-57
2022/12/14 09:14:45;;;;;;;0.00;0.00;;;;;;;3.32;71.39;100438.44;7367266;19;20034;-58
2022/12/14 09:17:11;;;;;;;0.10;0.10;;;;;;;3.36;71.41;100440.19;7367140;19;20092;-57
2022/12/14 09:19:37;;;;;;;0.10;0.10;;;;;;;3.36;71.45;100432.44;7366191;19;20474;-57
2022/12/14 09:22:02;;;;;;;0.10;0.10;;;;;;;3.40;71.49;100438.47;7368010;19;20358;-57
2022/12/14 09:24:28;;;;;;;0.00;0.00;;;;;;;3.30;71.39;100424.69;7366948;19;20739;-57
2022/12/14 09:26:53;;;;;;;0.10;0.10;;;;;;;3.46;71.37;100448.81;7366428;19;20026;-55
2022/12/14 09:29:19;;;;;;;0.00;0.00;;;;;;;3.50;71.26;100460.88;7365436;19;20010;-57
2022/12/14 09:31:44;;;;;;;0.10;0.10;;;;;;;3.50;71.00;100454.84;7367145;19;20014;-57
2022/12/14 09:34:10;;;;;;;0.00;0.00;;;;;;;3.53;70.88;100460.00;7367029;19;20096;-57
2022/12/14 09:36:36;;;;;;;0.10;0.10;;;;;;;3.57;70.99;100472.91;7365148;19;20014;-57
2022/12/14 09:39:02;;;;;;;0.10;0.10;;;;;;;3.57;71.29;100461.72;7367942;19;20010;-57
2022/12/14 09:41:46;;;;;;;0.00;0.00;;;;;;;3.60;71.08;100457.44;7363444;19;20021;-57
2022/12/14 09:44:36;;;;;;;0.10;0.10;;;;;;;3.66;71.03;100469.50;7365957;19;20038;-58
2022/12/14 09:47:15;;;;;;;0.10;0.10;;;;;;;3.70;71.33;100452.28;7366211;19;20065;-58
2022/12/14 09:49:56;;;;;;;0.10;0.10;;;;;;;3.74;70.87;100460.03;7366214;19;20458;-57
2022/12/14 09:52:27;;;;;;;0.10;0.10;;;;;;;3.78;70.91;100466.06;7366937;19;20740;-58
2022/12/14 09:54:54;;;;;;;0.00;0.00;;;;;;;3.78;70.73;100466.91;7367343;19;20013;-57
2022/12/14 09:57:33;;;;;;;0.00;0.00;;;;;;;3.76;70.90;100463.50;7364047;19;20018;-57
2022/12/14 09:59:59;;;;;;;0.10;0.10;;;;;;;3.81;70.87;100466.09;7367154;19;20015;-58
2022/12/14 10:02:39;;;;;;;0.00;0.00;;;;;;;3.83;70.87;100470.38;7362556;19;20025;-58
2022/12/14 10:05:23;;;;;;;0.00;0.00;;;;;;;3.84;70.90;100482.41;7361647;19;20118;-57
2022/12/14 10:08:00;;;;;;;0.10;0.10;;;;;;;3.85;70.76;100484.16;7364155;19;20018;-57
2022/12/14 10:10:59;;;;;;;0.10;0.10;;;;;;;3.85;70.59;100479.00;7367725;19;20484;-56
2022/12/14 10:13:40;;;;;;;0.13;0.13;;;;;;;3.55;70.67;100432.47;7263901;19;2003994;-56
2022/12/14 10:16:48;;;;;;;0.00;0.00;;;;;;;3.84;70.89;100468.66;7364773;19;20109;-58
2022/12/14 10:19:26;;;;;;;0.10;0.10;;;;;;;3.98;70.54;100499.66;7260182;19;2004757;-55
2022/12/14 10:22:05;;;;;;;0.00;0.00;;;;;;;4.02;70.38;100491.94;7364013;19;20029;-56
2022/12/14 10:24:37;;;;;;;0.10;0.10;;;;;;;4.08;70.39;100506.56;7367004;19;20019;-56
2022/12/14 10:27:08;;;;;;;0.10;0.10;;;;;;;4.14;70.38;100506.56;7364503;19;20010;-57
2022/12/14 10:29:39;;;;;;;0.10;0.10;;;;;;;4.19;70.31;100499.66;7364106;19;20045;-57
2022/12/14 10:32:08;;;;;;;0.10;0.10;;;;;;;4.26;70.13;100506.59;7363610;19;20074;-57
2022/12/14 10:34:34;;;;;;;0.00;0.00;;;;;;;4.27;69.72;100497.97;7366674;19;20018;-57
2022/12/14 10:37:21;;;;;;;0.00;0.00;;;;;;;4.32;69.70;100506.56;7364725;19;20445;-57
2022/12/14 10:40:10;;;;;;;0.10;0.10;;;;;;;4.30;69.83;100505.69;7366207;19;20433;-55
2022/12/14 10:43:03;;;;;;;0.10;0.10;;;;;;;4.30;69.62;100512.59;7364210;19;20078;-57
2022/12/14 10:45:45;;;;;;;0.10;0.10;;;;;;;4.27;69.75;100518.63;7262258;19;2005005;-56
2022/12/14 10:48:36;;;;;;;0.10;0.10;;;;;;;4.25;70.15;100519.47;7365466;19;20015;-58
2022/12/14 10:51:38;;;;;;;0.10;0.10;;;;;;;4.25;70.00;100516.91;7365485;19;20010;-55
2022/12/14 10:54:11;;;;;;;0.00;0.00;;;;;;;4.29;70.16;100514.31;7262381;19;2004232;-58
2022/12/14 10:56:40;;;;;;;0.00;0.00;;;;;;;4.38;70.35;100523.81;7363046;19;20569;-55
2022/12/14 10:59:24;;;;;;;0.00;0.00;;;;;;;4.62;70.59;100526.38;7363127;19;20018;-58
2022/12/14 11:01:55;;;;;;;0.00;0.00;;;;;;;4.82;70.37;100523.75;7363739;19;20018;-58
2022/12/14 11:04:29;;;;;;;0.10;0.10;;;;;;;4.73;70.03;100477.22;7365864;19;20466;-56
2022/12/14 11:07:00;;;;;;;0.00;0.00;;;;;;;5.23;69.47;100530.53;7361384;19;20033;-57
2022/12/14 11:09:26;;;;;;;0.10;0.10;;;;;;;5.38;69.50;100527.88;7364672;19;20010;-57
2022/12/14 11:12:12;;;;;;;0.03;0.03;;;;;;;5.59;69.68;100533.84;7365857;19;20027;-56
2022/12/14 11:14:48;;;;;;;0.10;0.10;;;;;;;5.68;69.04;100528.63;7364192;19;20645;-57
2022/12/14 11:17:34;;;;;;;0.00;0.00;;;;;;;5.88;69.71;100536.25;7362139;19;20015;-58
2022/12/14 11:20:18;;;;;;;0.03;0.03;;;;;;;6.01;69.22;100535.34;7360810;19;20006;-58
2022/12/14 11:22:51;;;;;;;0.00;0.00;;;;;;;6.15;68.61;100535.25;7363433;19;20014;-58
2022/12/14 11:25:30;;;;;;;0.00;0.00;;;;;;;6.31;69.00;100531.66;7361431;19;20047;-57
2022/12/14 11:27:58;;;;;;;0.00;0.00;;;;;;;6.38;67.93;100533.31;7362829;19;20019;-58
2022/12/14 11:30:24;;;;;;;0.00;0.00;;;;;;;6.55;67.47;100534.94;7363122;19;20755;-58
2022/12/14 11:32:50;;;;;;;0.00;0.00;;;;;;;6.64;67.33;100525.34;7364414;19;20018;-58
2022/12/14 11:35:18;;;;;;;0.00;0.00;;;;;;;6.96;67.13;100532.78;7363034;19;20010;-57
2022/12/14 11:37:47;;;;;;;0.00;0.00;;;;;;;7.31;67.13;100544.53;7360465;19;20030;-58
2022/12/14 11:40:24;;;;;;;0.10;0.10;;;;;;;7.64;67.18;100547.56;7362998;19;19998;-58
2022/12/14 11:42:54;;;;;;;0.00;0.00;;;;;;;7.88;65.83;100539.44;7363702;19;20069;-58
2022/12/14 11:45:49;;;;;;;0.10;0.10;;;;;;;8.14;67.32;100517.38;7361675;19;20475;-57
2022/12/14 11:48:14;;;;;;;0.00;0.00;;;;;;;8.53;64.48;100542.78;7257378;19;2004278;-55
2022/12/14 11:50:45;;;;;;;0.00;0.00;;;;;;;8.88;64.79;100541.31;7361905;19;20482;-55
2022/12/14 11:53:15;;;;;;;0.03;0.03;;;;;;;9.19;63.94;100544.19;7359106;19;20395;-54
2022/12/14 11:55:54;;;;;;;0.00;0.00;;;;;;;9.54;64.09;100538.28;7363254;19;20070;-56
2022/12/14 11:58:22;;;;;;;0.00;0.00;;;;;;;9.82;62.71;100524.63;7361898;19;20443;-55
2022/12/14 12:00:57;;;;;;;0.00;0.00;;;;;;;10.20;62.63;100531.56;7361459;19;20540;-56
2022/12/14 12:03:35;;;;;;;0.00;0.00;;;;;;;10.46;62.50;100536.19;7361988;19;20018;-55
2022/12/14 12:06:06;;;;;;;0.00;0.00;;;;;;;10.63;59.62;100530.53;7364623;19;20014;-56